sensor_id;sensor_type;location;lat;lon;timestamp;P1;durP1;ratioP1;P2;durP2;ratioP2
69703;SDS011;56967;43.538;-5.646;2022-10-31T00:02:05;8.07;;;3.67;;
69703;SDS011;56967;43.538;-5.646;2022-10-31T00:04:30;10.63;;;3.50;;
69703;SDS011;56967;43.538;-5.646;2022-10-31T00:06:56;7.50;;;3.10;;
69703;SDS011;56967;43.538;-5.646;2022-10-31T00:09:21;3.97;;;2.70;;
69703;SDS011;56967;43.538;-5.646;2022-10-31T00:11:47;4.53;;;2.60;;
69703;SDS011;56967;43.538;-5.646;2022-10-31T00:14:12;7.85;;;2.80;;
69703;SDS011;56967;43.538;-5.646;2022-10-31T00:16:38;6.68;;;3.15;;
69703;SDS011;56967;43.538;-5.646;2022-10-31T00:19:06;4.90;;;2.70;;
69703;SDS011;56967;43.538;-5.646;2022-10-31T00:21:33;6.95;;;3.05;;
69703;SDS011;56967;43.538;-5.646;2022-10-31T00:23:59;6.47;;;3.10;;
69703;SDS011;56967;43.538;-5.646;2022-10-31T00:26:29;7.30;;;3.08;;
69703;SDS011;56967;43.538;-5.646;2022-10-31T00:28:56;6.20;;;3.13;;
69703;SDS011;56967;43.538;-5.646;2022-10-31T00:31:23;6.43;;;3.22;;
69703;SDS011;56967;43.538;-5.646;2022-10-31T00:33:48;8.98;;;3.35;;
69703;SDS011;56967;43.538;-5.646;2022-10-31T00:36:15;8.27;;;3.08;;
69703;SDS011;56967;43.538;-5.646;2022-10-31T00:38:42;7.35;;;3.13;;
69703;SDS011;56967;43.538;-5.646;2022-10-31T00:41:09;6.75;;;2.90;;
69703;SDS011;56967;43.538;-5.646;2022-10-31T00:43:35;5.15;;;2.80;;
69703;SDS011;56967;43.538;-5.646;2022-10-31T00:46:00;5.50;;;2.85;;
69703;SDS011;56967;43.538;-5.646;2022-10-31T00:48:26;7.32;;;2.90;;
69703;SDS011;56967;43.538;-5.646;2022-10-31T00:50:51;4.85;;;2.60;;
69703;SDS011;56967;43.538;-5.646;2022-10-31T00:53:17;6.68;;;2.63;;
69703;SDS011;56967;43.538;-5.646;2022-10-31T00:55:42;4.85;;;2.50;;
69703;SDS011;56967;43.538;-5.646;2022-10-31T00:58:08;4.05;;;2.42;;
69703;SDS011;56967;43.538;-5.646;2022-10-31T01:00:33;6.43;;;2.90;;
69703;SDS011;56967;43.538;-5.646;2022-10-31T01:02:59;6.75;;;3.10;;
69703;SDS011;56967;43.538;-5.646;2022-10-31T01:05:25;5.82;;;3.33;;
69703;SDS011;56967;43.538;-5.646;2022-10-31T01:07:50;5.55;;;2.60;;
69703;SDS011;56967;43.538;-5.646;2022-10-31T01:10:16;6.25;;;3.00;;
69703;SDS011;56967;43.538;-5.646;2022-10-31T01:12:43;5.35;;;2.67;;
69703;SDS011;56967;43.538;-5.646;2022-10-31T01:15:12;5.88;;;2.55;;
69703;SDS011;56967;43.538;-5.646;2022-10-31T01:17:39;5.53;;;2.88;;
69703;SDS011;56967;43.538;-5.646;2022-10-31T01:20:05;9.07;;;3.30;;
69703;SDS011;56967;43.538;-5.646;2022-10-31T01:22:33;6.40;;;2.97;;
69703;SDS011;56967;43.538;-5.646;2022-10-31T01:24:58;7.45;;;3.10;;
69703;SDS011;56967;43.538;-5.646;2022-10-31T01:27:24;4.32;;;2.65;;
69703;SDS011;56967;43.538;-5.646;2022-10-31T01:29:49;7.20;;;2.90;;
69703;SDS011;56967;43.538;-5.646;2022-10-31T01:32:15;5.80;;;2.72;;
69703;SDS011;56967;43.538;-5.646;2022-10-31T01:34:40;5.63;;;2.67;;
69703;SDS011;56967;43.538;-5.646;2022-10-31T01:37:06;7.13;;;2.50;;
69703;SDS011;56967;43.538;-5.646;2022-10-31T01:39:31;5.35;;;2.40;;
69703;SDS011;56967;43.538;-5.646;2022-10-31T01:41:57;6.63;;;3.17;;
69703;SDS011;56967;43.538;-5.646;2022-10-31T01:46:51;4.97;;;3.05;;
69703;SDS011;56967;43.538;-5.646;2022-10-31T01:52:25;6.75;;;2.83;;
69703;SDS011;56967;43.538;-5.646;2022-10-31T01:57:32;6.93;;;3.00;;
69703;SDS011;56967;43.538;-5.646;2022-10-31T02:00:01;5.03;;;2.80;;
69703;SDS011;56967;43.538;-5.646;2022-10-31T02:02:31;4.80;;;2.60;;
69703;SDS011;56967;43.538;-5.646;2022-10-31T02:04:56;7.38;;;2.63;;
69703;SDS011;56967;43.538;-5.646;2022-10-31T02:07:43;5.78;;;2.80;;
69703;SDS011;56967;43.538;-5.646;2022-10-31T02:10:15;4.88;;;2.22;;
69703;SDS011;56967;43.538;-5.646;2022-10-31T02:12:41;4.30;;;2.30;;
69703;SDS011;56967;43.538;-5.646;2022-10-31T02:15:08;4.80;;;2.83;;
69703;SDS011;56967;43.538;-5.646;2022-10-31T02:17:34;4.45;;;2.47;;
69703;SDS011;56967;43.538;-5.646;2022-10-31T02:20:05;5.40;;;2.05;;
69703;SDS011;56967;43.538;-5.646;2022-10-31T02:25:46;3.30;;;2.15;;
69703;SDS011;56967;43.538;-5.646;2022-10-31T02:28:41;6.97;;;2.67;;
69703;SDS011;56967;43.538;-5.646;2022-10-31T02:31:25;5.68;;;2.42;;
69703;SDS011;56967;43.538;-5.646;2022-10-31T02:39:25;3.63;;;2.17;;
69703;SDS011;56967;43.538;-5.646;2022-10-31T02:42:01;3.80;;;2.33;;
69703;SDS011;56967;43.538;-5.646;2022-10-31T02:44:44;5.82;;;2.42;;
69703;SDS011;56967;43.538;-5.646;2022-10-31T02:47:15;5.28;;;2.30;;
69703;SDS011;56967;43.538;-5.646;2022-10-31T02:52:31;3.45;;;2.28;;
69703;SDS011;56967;43.538;-5.646;2022-10-31T02:54:58;5.07;;;2.05;;
69703;SDS011;56967;43.538;-5.646;2022-10-31T02:57:53;5.53;;;2.08;;
69703;SDS011;56967;43.538;-5.646;2022-10-31T03:00:21;5.57;;;2.10;;
69703;SDS011;56967;43.538;-5.646;2022-10-31T03:06:13;4.15;;;1.98;;
69703;SDS011;56967;43.538;-5.646;2022-10-31T03:08:50;2.72;;;2.10;;
69703;SDS011;56967;43.538;-5.646;2022-10-31T03:11:22;4.80;;;2.00;;
69703;SDS011;56967;43.538;-5.646;2022-10-31T03:13:56;4.00;;;2.13;;
69703;SDS011;56967;43.538;-5.646;2022-10-31T03:19:12;2.75;;;1.70;;
69703;SDS011;56967;43.538;-5.646;2022-10-31T03:21:53;3.05;;;1.75;;
69703;SDS011;56967;43.538;-5.646;2022-10-31T03:24:27;4.55;;;2.22;;
69703;SDS011;56967;43.538;-5.646;2022-10-31T03:26:57;4.15;;;1.80;;
69703;SDS011;56967;43.538;-5.646;2022-10-31T03:29:26;5.30;;;2.22;;
69703;SDS011;56967;43.538;-5.646;2022-10-31T03:31:57;4.10;;;1.90;;
69703;SDS011;56967;43.538;-5.646;2022-10-31T03:34:26;4.05;;;2.10;;
69703;SDS011;56967;43.538;-5.646;2022-10-31T03:36:55;4.40;;;1.90;;
69703;SDS011;56967;43.538;-5.646;2022-10-31T03:39:23;7.18;;;2.20;;
69703;SDS011;56967;43.538;-5.646;2022-10-31T03:41:53;3.85;;;2.00;;
69703;SDS011;56967;43.538;-5.646;2022-10-31T03:44:22;4.50;;;1.65;;
69703;SDS011;56967;43.538;-5.646;2022-10-31T03:46:49;3.22;;;1.70;;
69703;SDS011;56967;43.538;-5.646;2022-10-31T03:49:15;3.05;;;1.48;;
69703;SDS011;56967;43.538;-5.646;2022-10-31T03:56:44;3.95;;;2.15;;
69703;SDS011;56967;43.538;-5.646;2022-10-31T03:59:34;8.77;;;2.10;;
69703;SDS011;56967;43.538;-5.646;2022-10-31T04:02:05;2.58;;;1.55;;
69703;SDS011;56967;43.538;-5.646;2022-10-31T04:04:33;4.28;;;1.80;;
69703;SDS011;56967;43.538;-5.646;2022-10-31T04:06:59;4.03;;;1.60;;
69703;SDS011;56967;43.538;-5.646;2022-10-31T04:09:26;3.60;;;1.73;;
69703;SDS011;56967;43.538;-5.646;2022-10-31T04:11:56;2.95;;;1.75;;
69703;SDS011;56967;43.538;-5.646;2022-10-31T04:14:24;3.35;;;1.88;;
69703;SDS011;56967;43.538;-5.646;2022-10-31T04:16:51;3.63;;;2.20;;
69703;SDS011;56967;43.538;-5.646;2022-10-31T04:19:17;3.40;;;1.70;;
69703;SDS011;56967;43.538;-5.646;2022-10-31T04:21:42;3.20;;;1.88;;
69703;SDS011;56967;43.538;-5.646;2022-10-31T04:24:10;4.50;;;1.90;;
69703;SDS011;56967;43.538;-5.646;2022-10-31T04:26:36;4.75;;;1.88;;
69703;SDS011;56967;43.538;-5.646;2022-10-31T04:29:02;4.28;;;1.85;;
69703;SDS011;56967;43.538;-5.646;2022-10-31T04:31:27;6.90;;;2.15;;
69703;SDS011;56967;43.538;-5.646;2022-10-31T04:33:53;5.25;;;2.40;;
69703;SDS011;56967;43.538;-5.646;2022-10-31T04:36:19;2.88;;;1.92;;
69703;SDS011;56967;43.538;-5.646;2022-10-31T04:38:44;3.08;;;1.75;;
69703;SDS011;56967;43.538;-5.646;2022-10-31T04:41:10;4.72;;;2.00;;
69703;SDS011;56967;43.538;-5.646;2022-10-31T04:43:35;3.08;;;1.80;;
69703;SDS011;56967;43.538;-5.646;2022-10-31T04:46:01;3.05;;;1.52;;
69703;SDS011;56967;43.538;-5.646;2022-10-31T04:48:26;4.90;;;1.90;;
69703;SDS011;56967;43.538;-5.646;2022-10-31T04:50:52;3.70;;;2.03;;
69703;SDS011;56967;43.538;-5.646;2022-10-31T04:53:17;4.32;;;1.85;;
69703;SDS011;56967;43.538;-5.646;2022-10-31T04:55:43;3.40;;;1.77;;
69703;SDS011;56967;43.538;-5.646;2022-10-31T04:58:08;3.70;;;1.90;;
69703;SDS011;56967;43.538;-5.646;2022-10-31T05:00:33;4.68;;;1.90;;
69703;SDS011;56967;43.538;-5.646;2022-10-31T05:02:59;3.47;;;1.92;;
69703;SDS011;56967;43.538;-5.646;2022-10-31T05:05:25;7.18;;;1.83;;
69703;SDS011;56967;43.538;-5.646;2022-10-31T05:07:53;5.75;;;1.75;;
69703;SDS011;56967;43.538;-5.646;2022-10-31T05:10:20;3.75;;;1.50;;
69703;SDS011;56967;43.538;-5.646;2022-10-31T05:12:48;2.22;;;1.70;;
69703;SDS011;56967;43.538;-5.646;2022-10-31T05:15:16;3.35;;;1.67;;
69703;SDS011;56967;43.538;-5.646;2022-10-31T05:17:42;5.50;;;1.83;;
69703;SDS011;56967;43.538;-5.646;2022-10-31T05:20:09;2.60;;;1.40;;
69703;SDS011;56967;43.538;-5.646;2022-10-31T05:22:35;3.42;;;1.90;;
69703;SDS011;56967;43.538;-5.646;2022-10-31T05:25:01;5.07;;;1.73;;
69703;SDS011;56967;43.538;-5.646;2022-10-31T05:27:26;3.63;;;1.65;;
69703;SDS011;56967;43.538;-5.646;2022-10-31T05:29:52;3.10;;;1.60;;
69703;SDS011;56967;43.538;-5.646;2022-10-31T05:32:17;2.53;;;1.60;;
69703;SDS011;56967;43.538;-5.646;2022-10-31T05:34:43;3.28;;;1.63;;
69703;SDS011;56967;43.538;-5.646;2022-10-31T05:37:08;2.78;;;1.80;;
69703;SDS011;56967;43.538;-5.646;2022-10-31T05:39:33;2.63;;;1.70;;
69703;SDS011;56967;43.538;-5.646;2022-10-31T05:41:59;3.45;;;1.67;;
69703;SDS011;56967;43.538;-5.646;2022-10-31T05:44:24;2.80;;;1.85;;
69703;SDS011;56967;43.538;-5.646;2022-10-31T05:46:50;2.05;;;1.58;;
69703;SDS011;56967;43.538;-5.646;2022-10-31T05:49:15;3.92;;;1.92;;
69703;SDS011;56967;43.538;-5.646;2022-10-31T05:51:42;5.78;;;1.80;;
69703;SDS011;56967;43.538;-5.646;2022-10-31T05:54:08;3.85;;;1.95;;
69703;SDS011;56967;43.538;-5.646;2022-10-31T05:56:33;3.78;;;2.20;;
69703;SDS011;56967;43.538;-5.646;2022-10-31T05:58:59;5.10;;;1.85;;
69703;SDS011;56967;43.538;-5.646;2022-10-31T06:01:24;3.55;;;2.10;;
69703;SDS011;56967;43.538;-5.646;2022-10-31T06:03:50;4.68;;;1.80;;
69703;SDS011;56967;43.538;-5.646;2022-10-31T06:06:15;5.47;;;2.00;;
69703;SDS011;56967;43.538;-5.646;2022-10-31T06:08:41;5.20;;;2.78;;
69703;SDS011;56967;43.538;-5.646;2022-10-31T06:11:06;3.15;;;1.67;;
69703;SDS011;56967;43.538;-5.646;2022-10-31T06:13:32;3.60;;;2.65;;
69703;SDS011;56967;43.538;-5.646;2022-10-31T06:15:57;5.47;;;2.00;;
69703;SDS011;56967;43.538;-5.646;2022-10-31T06:18:22;4.00;;;2.00;;
69703;SDS011;56967;43.538;-5.646;2022-10-31T06:20:48;3.33;;;1.80;;
69703;SDS011;56967;43.538;-5.646;2022-10-31T06:23:14;3.88;;;2.08;;
69703;SDS011;56967;43.538;-5.646;2022-10-31T06:25:39;4.95;;;2.13;;
69703;SDS011;56967;43.538;-5.646;2022-10-31T06:28:05;5.10;;;2.42;;
69703;SDS011;56967;43.538;-5.646;2022-10-31T06:30:30;4.18;;;2.10;;
69703;SDS011;56967;43.538;-5.646;2022-10-31T06:33:01;5.05;;;2.20;;
69703;SDS011;56967;43.538;-5.646;2022-10-31T06:35:30;4.20;;;2.35;;
69703;SDS011;56967;43.538;-5.646;2022-10-31T06:37:55;4.80;;;2.30;;
69703;SDS011;56967;43.538;-5.646;2022-10-31T06:40:21;4.72;;;1.92;;
69703;SDS011;56967;43.538;-5.646;2022-10-31T06:42:47;2.92;;;1.77;;
69703;SDS011;56967;43.538;-5.646;2022-10-31T06:45:20;3.97;;;2.28;;
69703;SDS011;56967;43.538;-5.646;2022-10-31T06:47:50;4.72;;;1.42;;
69703;SDS011;56967;43.538;-5.646;2022-10-31T06:50:16;6.18;;;1.60;;
69703;SDS011;56967;43.538;-5.646;2022-10-31T06:52:42;4.82;;;2.08;;
69703;SDS011;56967;43.538;-5.646;2022-10-31T06:55:07;6.00;;;1.40;;
69703;SDS011;56967;43.538;-5.646;2022-10-31T06:57:33;2.88;;;1.45;;
69703;SDS011;56967;43.538;-5.646;2022-10-31T06:59:58;3.20;;;1.27;;
69703;SDS011;56967;43.538;-5.646;2022-10-31T07:02:24;3.10;;;1.38;;
69703;SDS011;56967;43.538;-5.646;2022-10-31T07:04:49;2.40;;;1.20;;
69703;SDS011;56967;43.538;-5.646;2022-10-31T07:07:15;2.15;;;1.05;;
69703;SDS011;56967;43.538;-5.646;2022-10-31T07:09:40;5.05;;;1.60;;
69703;SDS011;56967;43.538;-5.646;2022-10-31T07:12:06;3.30;;;1.60;;
69703;SDS011;56967;43.538;-5.646;2022-10-31T07:14:31;3.05;;;1.90;;
69703;SDS011;56967;43.538;-5.646;2022-10-31T07:16:57;5.82;;;3.33;;
69703;SDS011;56967;43.538;-5.646;2022-10-31T07:19:22;3.38;;;2.50;;
69703;SDS011;56967;43.538;-5.646;2022-10-31T07:21:48;4.28;;;2.50;;
69703;SDS011;56967;43.538;-5.646;2022-10-31T07:24:13;4.70;;;2.40;;
69703;SDS011;56967;43.538;-5.646;2022-10-31T07:26:38;4.70;;;2.10;;
69703;SDS011;56967;43.538;-5.646;2022-10-31T07:29:04;4.68;;;1.58;;
69703;SDS011;56967;43.538;-5.646;2022-10-31T07:31:30;4.53;;;2.38;;
69703;SDS011;56967;43.538;-5.646;2022-10-31T07:33:55;2.70;;;1.70;;
69703;SDS011;56967;43.538;-5.646;2022-10-31T07:36:21;2.17;;;1.10;;
69703;SDS011;56967;43.538;-5.646;2022-10-31T07:38:46;4.47;;;0.80;;
69703;SDS011;56967;43.538;-5.646;2022-10-31T07:41:11;2.38;;;1.08;;
69703;SDS011;56967;43.538;-5.646;2022-10-31T07:43:37;3.00;;;1.15;;
69703;SDS011;56967;43.538;-5.646;2022-10-31T07:46:02;2.33;;;0.90;;
69703;SDS011;56967;43.538;-5.646;2022-10-31T07:48:28;2.55;;;0.93;;
69703;SDS011;56967;43.538;-5.646;2022-10-31T07:50:54;1.20;;;0.73;;
69703;SDS011;56967;43.538;-5.646;2022-10-31T07:53:20;0.88;;;0.77;;
69703;SDS011;56967;43.538;-5.646;2022-10-31T07:55:45;1.35;;;0.70;;
69703;SDS011;56967;43.538;-5.646;2022-10-31T07:58:12;1.45;;;0.70;;
69703;SDS011;56967;43.538;-5.646;2022-10-31T08:00:40;1.50;;;0.80;;
69703;SDS011;56967;43.538;-5.646;2022-10-31T08:03:07;1.35;;;0.80;;
69703;SDS011;56967;43.538;-5.646;2022-10-31T08:05:35;0.95;;;0.60;;
69703;SDS011;56967;43.538;-5.646;2022-10-31T08:08:01;0.95;;;0.70;;
69703;SDS011;56967;43.538;-5.646;2022-10-31T08:10:28;0.80;;;0.60;;
69703;SDS011;56967;43.538;-5.646;2022-10-31T08:12:57;1.15;;;0.57;;
69703;SDS011;56967;43.538;-5.646;2022-10-31T08:15:27;2.47;;;0.80;;
69703;SDS011;56967;43.538;-5.646;2022-10-31T08:17:54;1.00;;;0.70;;
69703;SDS011;56967;43.538;-5.646;2022-10-31T08:20:19;2.08;;;1.30;;
69703;SDS011;56967;43.538;-5.646;2022-10-31T08:22:59;1.63;;;1.10;;
69703;SDS011;56967;43.538;-5.646;2022-10-31T08:25:26;2.08;;;1.30;;
69703;SDS011;56967;43.538;-5.646;2022-10-31T08:27:54;2.45;;;1.63;;
69703;SDS011;56967;43.538;-5.646;2022-10-31T08:30:22;3.08;;;1.88;;
69703;SDS011;56967;43.538;-5.646;2022-10-31T08:33:02;2.50;;;1.60;;
69703;SDS011;56967;43.538;-5.646;2022-10-31T08:35:30;2.38;;;1.50;;
69703;SDS011;56967;43.538;-5.646;2022-10-31T08:37:57;4.50;;;1.70;;
69703;SDS011;56967;43.538;-5.646;2022-10-31T08:40:26;4.63;;;2.58;;
69703;SDS011;56967;43.538;-5.646;2022-10-31T08:42:57;3.88;;;3.00;;
69703;SDS011;56967;43.538;-5.646;2022-10-31T08:45:23;4.40;;;2.88;;
69703;SDS011;56967;43.538;-5.646;2022-10-31T08:47:50;6.65;;;3.75;;
69703;SDS011;56967;43.538;-5.646;2022-10-31T08:50:16;6.45;;;3.80;;
69703;SDS011;56967;43.538;-5.646;2022-10-31T08:52:41;7.30;;;4.10;;
69703;SDS011;56967;43.538;-5.646;2022-10-31T08:55:07;6.80;;;4.03;;
69703;SDS011;56967;43.538;-5.646;2022-10-31T08:57:33;10.45;;;4.50;;
69703;SDS011;56967;43.538;-5.646;2022-10-31T08:59:58;6.82;;;4.30;;
69703;SDS011;56967;43.538;-5.646;2022-10-31T09:02:24;7.55;;;4.60;;
69703;SDS011;56967;43.538;-5.646;2022-10-31T09:04:49;7.25;;;4.47;;
69703;SDS011;56967;43.538;-5.646;2022-10-31T09:07:15;7.90;;;4.85;;
69703;SDS011;56967;43.538;-5.646;2022-10-31T09:09:40;9.48;;;4.95;;
69703;SDS011;56967;43.538;-5.646;2022-10-31T09:12:06;9.38;;;4.88;;
69703;SDS011;56967;43.538;-5.646;2022-10-31T09:14:31;9.85;;;4.60;;
69703;SDS011;56967;43.538;-5.646;2022-10-31T09:16:57;9.15;;;4.65;;
69703;SDS011;56967;43.538;-5.646;2022-10-31T09:19:22;10.45;;;4.55;;
69703;SDS011;56967;43.538;-5.646;2022-10-31T09:21:51;10.60;;;4.50;;
69703;SDS011;56967;43.538;-5.646;2022-10-31T09:24:17;13.18;;;5.32;;
69703;SDS011;56967;43.538;-5.646;2022-10-31T09:26:42;10.10;;;4.40;;
69703;SDS011;56967;43.538;-5.646;2022-10-31T09:29:08;13.43;;;4.93;;
69703;SDS011;56967;43.538;-5.646;2022-10-31T09:31:34;5.80;;;4.05;;
69703;SDS011;56967;43.538;-5.646;2022-10-31T09:34:02;16.95;;;5.80;;
69703;SDS011;56967;43.538;-5.646;2022-10-31T09:36:31;19.02;;;6.30;;
69703;SDS011;56967;43.538;-5.646;2022-10-31T09:38:57;12.13;;;5.82;;
69703;SDS011;56967;43.538;-5.646;2022-10-31T09:41:24;11.30;;;5.65;;
69703;SDS011;56967;43.538;-5.646;2022-10-31T09:52:41;16.65;;;6.70;;
69703;SDS011;56967;43.538;-5.646;2022-10-31T09:55:15;14.38;;;6.82;;
69703;SDS011;56967;43.538;-5.646;2022-10-31T09:57:44;16.73;;;7.05;;
69703;SDS011;56967;43.538;-5.646;2022-10-31T10:00:14;17.10;;;7.30;;
69703;SDS011;56967;43.538;-5.646;2022-10-31T10:06:01;17.15;;;6.35;;
69703;SDS011;56967;43.538;-5.646;2022-10-31T10:08:32;22.30;;;6.40;;
69703;SDS011;56967;43.538;-5.646;2022-10-31T10:21:52;19.85;;;6.30;;
69703;SDS011;56967;43.538;-5.646;2022-10-31T10:27:00;13.88;;;5.80;;
69703;SDS011;56967;43.538;-5.646;2022-10-31T10:29:45;13.35;;;6.18;;
69703;SDS011;56967;43.538;-5.646;2022-10-31T10:32:25;13.63;;;5.40;;
69703;SDS011;56967;43.538;-5.646;2022-10-31T10:34:55;18.67;;;6.38;;
69703;SDS011;56967;43.538;-5.646;2022-10-31T10:37:31;13.60;;;4.80;;
69703;SDS011;56967;43.538;-5.646;2022-10-31T10:40:06;7.93;;;4.10;;
69703;SDS011;56967;43.538;-5.646;2022-10-31T10:42:39;10.23;;;4.07;;
69703;SDS011;56967;43.538;-5.646;2022-10-31T10:45:32;8.88;;;4.35;;
69703;SDS011;56967;43.538;-5.646;2022-10-31T10:48:31;12.18;;;4.88;;
69703;SDS011;56967;43.538;-5.646;2022-10-31T10:51:06;9.35;;;4.72;;
69703;SDS011;56967;43.538;-5.646;2022-10-31T10:53:51;9.05;;;4.97;;
69703;SDS011;56967;43.538;-5.646;2022-10-31T10:59:06;11.82;;;4.05;;
69703;SDS011;56967;43.538;-5.646;2022-10-31T11:01:36;11.57;;;4.30;;
69703;SDS011;56967;43.538;-5.646;2022-10-31T11:04:03;12.15;;;5.03;;
69703;SDS011;56967;43.538;-5.646;2022-10-31T11:06:39;8.65;;;4.10;;
69703;SDS011;56967;43.538;-5.646;2022-10-31T11:09:10;11.93;;;4.05;;
69703;SDS011;56967;43.538;-5.646;2022-10-31T11:11:36;8.00;;;3.80;;
69703;SDS011;56967;43.538;-5.646;2022-10-31T11:14:05;7.75;;;3.80;;
69703;SDS011;56967;43.538;-5.646;2022-10-31T11:16:37;7.85;;;4.07;;
69703;SDS011;56967;43.538;-5.646;2022-10-31T11:19:06;8.23;;;4.10;;
69703;SDS011;56967;43.538;-5.646;2022-10-31T11:21:41;9.68;;;3.85;;
69703;SDS011;56967;43.538;-5.646;2022-10-31T11:26:39;8.75;;;3.85;;
69703;SDS011;56967;43.538;-5.646;2022-10-31T11:29:16;10.18;;;4.00;;
69703;SDS011;56967;43.538;-5.646;2022-10-31T11:31:47;7.45;;;3.50;;
69703;SDS011;56967;43.538;-5.646;2022-10-31T11:34:26;6.05;;;2.92;;
69703;SDS011;56967;43.538;-5.646;2022-10-31T11:36:55;6.25;;;2.55;;
69703;SDS011;56967;43.538;-5.646;2022-10-31T11:39:28;3.97;;;2.20;;
69703;SDS011;56967;43.538;-5.646;2022-10-31T11:41:53;4.88;;;2.50;;
69703;SDS011;56967;43.538;-5.646;2022-10-31T11:44:26;4.20;;;2.40;;
69703;SDS011;56967;43.538;-5.646;2022-10-31T11:46:56;6.95;;;2.40;;
69703;SDS011;56967;43.538;-5.646;2022-10-31T11:52:16;4.28;;;2.00;;
69703;SDS011;56967;43.538;-5.646;2022-10-31T11:54:50;3.05;;;2.08;;
69703;SDS011;56967;43.538;-5.646;2022-10-31T11:57:27;3.78;;;2.05;;
69703;SDS011;56967;43.538;-5.646;2022-10-31T11:59:56;3.08;;;1.83;;
69703;SDS011;56967;43.538;-5.646;2022-10-31T12:02:23;5.88;;;2.20;;
69703;SDS011;56967;43.538;-5.646;2022-10-31T12:04:55;4.45;;;2.00;;
69703;SDS011;56967;43.538;-5.646;2022-10-31T12:07:32;3.38;;;1.63;;
69703;SDS011;56967;43.538;-5.646;2022-10-31T12:09:57;7.95;;;2.00;;
69703;SDS011;56967;43.538;-5.646;2022-10-31T12:18:08;6.40;;;1.85;;
69703;SDS011;56967;43.538;-5.646;2022-10-31T12:21:00;6.68;;;2.80;;
69703;SDS011;56967;43.538;-5.646;2022-10-31T12:32:02;4.35;;;1.80;;
69703;SDS011;56967;43.538;-5.646;2022-10-31T12:38:20;3.92;;;2.50;;
69703;SDS011;56967;43.538;-5.646;2022-10-31T12:40:59;8.95;;;3.40;;
69703;SDS011;56967;43.538;-5.646;2022-10-31T12:46:27;9.50;;;3.70;;
69703;SDS011;56967;43.538;-5.646;2022-10-31T12:57:12;8.02;;;4.00;;
69703;SDS011;56967;43.538;-5.646;2022-10-31T12:59:53;6.30;;;3.10;;
69703;SDS011;56967;43.538;-5.646;2022-10-31T13:05:13;9.68;;;2.35;;
69703;SDS011;56967;43.538;-5.646;2022-10-31T13:08:07;7.63;;;2.67;;
69703;SDS011;56967;43.538;-5.646;2022-10-31T13:16:29;5.65;;;2.20;;
69703;SDS011;56967;43.538;-5.646;2022-10-31T13:19:10;5.78;;;2.10;;
69703;SDS011;56967;43.538;-5.646;2022-10-31T13:21:47;5.85;;;2.50;;
69703;SDS011;56967;43.538;-5.646;2022-10-31T13:24:26;5.38;;;2.20;;
69703;SDS011;56967;43.538;-5.646;2022-10-31T13:30:19;4.45;;;1.90;;
69703;SDS011;56967;43.538;-5.646;2022-10-31T13:33:01;6.10;;;2.15;;
69703;SDS011;56967;43.538;-5.646;2022-10-31T13:40:48;5.20;;;2.40;;
69703;SDS011;56967;43.538;-5.646;2022-10-31T13:46:22;5.15;;;3.00;;
69703;SDS011;56967;43.538;-5.646;2022-10-31T13:48:50;8.03;;;4.30;;
69703;SDS011;56967;43.538;-5.646;2022-10-31T13:51:27;4.63;;;2.13;;
69703;SDS011;56967;43.538;-5.646;2022-10-31T13:53:58;6.00;;;2.97;;
69703;SDS011;56967;43.538;-5.646;2022-10-31T13:56:29;6.13;;;2.63;;
69703;SDS011;56967;43.538;-5.646;2022-10-31T14:01:34;5.13;;;2.72;;
69703;SDS011;56967;43.538;-5.646;2022-10-31T14:04:05;11.40;;;2.90;;
69703;SDS011;56967;43.538;-5.646;2022-10-31T14:10:27;7.18;;;2.97;;
69703;SDS011;56967;43.538;-5.646;2022-10-31T14:12:45;8.50;;;3.45;;
69703;SDS011;56967;43.538;-5.646;2022-10-31T14:15:24;5.68;;;3.00;;
69703;SDS011;56967;43.538;-5.646;2022-10-31T14:17:52;5.78;;;3.10;;
69703;SDS011;56967;43.538;-5.646;2022-10-31T14:23:37;6.00;;;3.20;;
69703;SDS011;56967;43.538;-5.646;2022-10-31T14:28:42;5.90;;;2.80;;
69703;SDS011;56967;43.538;-5.646;2022-10-31T14:45:46;11.25;;;2.40;;
69703;SDS011;56967;43.538;-5.646;2022-10-31T14:51:12;11.02;;;2.33;;
69703;SDS011;56967;43.538;-5.646;2022-10-31T14:53:44;10.40;;;2.40;;
69703;SDS011;56967;43.538;-5.646;2022-10-31T14:56:23;20.05;;;3.58;;
69703;SDS011;56967;43.538;-5.646;2022-10-31T14:58:55;13.88;;;2.92;;
69703;SDS011;56967;43.538;-5.646;2022-10-31T15:03:54;12.80;;;2.35;;
69703;SDS011;56967;43.538;-5.646;2022-10-31T15:06:26;19.80;;;3.55;;
69703;SDS011;56967;43.538;-5.646;2022-10-31T15:08:55;35.45;;;3.13;;
69703;SDS011;56967;43.538;-5.646;2022-10-31T15:11:22;17.90;;;3.05;;
69703;SDS011;56967;43.538;-5.646;2022-10-31T15:16:23;16.25;;;2.63;;
69703;SDS011;56967;43.538;-5.646;2022-10-31T15:18:53;14.27;;;2.55;;
69703;SDS011;56967;43.538;-5.646;2022-10-31T15:21:33;17.33;;;3.13;;
69703;SDS011;56967;43.538;-5.646;2022-10-31T15:24:12;14.55;;;2.40;;
69703;SDS011;56967;43.538;-5.646;2022-10-31T15:26:53;7.10;;;1.75;;
69703;SDS011;56967;43.538;-5.646;2022-10-31T15:29:21;12.23;;;2.50;;
69703;SDS011;56967;43.538;-5.646;2022-10-31T15:31:52;12.13;;;2.30;;
69703;SDS011;56967;43.538;-5.646;2022-10-31T15:34:21;9.85;;;2.28;;
69703;SDS011;56967;43.538;-5.646;2022-10-31T15:36:47;11.27;;;2.25;;
69703;SDS011;56967;43.538;-5.646;2022-10-31T15:39:20;14.43;;;2.30;;
69703;SDS011;56967;43.538;-5.646;2022-10-31T15:41:50;9.05;;;2.10;;
69703;SDS011;56967;43.538;-5.646;2022-10-31T15:44:21;13.60;;;2.38;;
69703;SDS011;56967;43.538;-5.646;2022-10-31T15:54:44;9.05;;;1.90;;
69703;SDS011;56967;43.538;-5.646;2022-10-31T15:57:21;13.52;;;2.58;;
69703;SDS011;56967;43.538;-5.646;2022-10-31T15:59:51;12.13;;;2.22;;
69703;SDS011;56967;43.538;-5.646;2022-10-31T16:02:25;11.50;;;1.90;;
69703;SDS011;56967;43.538;-5.646;2022-10-31T16:04:58;12.38;;;2.40;;
69703;SDS011;56967;43.538;-5.646;2022-10-31T16:07:28;15.48;;;2.30;;
69703;SDS011;56967;43.538;-5.646;2022-10-31T16:10:02;10.32;;;1.80;;
69703;SDS011;56967;43.538;-5.646;2022-10-31T16:12:42;9.45;;;1.60;;
69703;SDS011;56967;43.538;-5.646;2022-10-31T16:15:14;12.45;;;2.67;;
69703;SDS011;56967;43.538;-5.646;2022-10-31T16:17:41;16.95;;;2.63;;
69703;SDS011;56967;43.538;-5.646;2022-10-31T16:20:16;14.95;;;2.33;;
69703;SDS011;56967;43.538;-5.646;2022-10-31T16:22:47;17.83;;;2.03;;
69703;SDS011;56967;43.538;-5.646;2022-10-31T16:25:15;9.32;;;2.00;;
69703;SDS011;56967;43.538;-5.646;2022-10-31T16:27:53;13.85;;;2.35;;
69703;SDS011;56967;43.538;-5.646;2022-10-31T16:30:35;9.85;;;2.00;;
69703;SDS011;56967;43.538;-5.646;2022-10-31T16:33:04;13.15;;;1.90;;
69703;SDS011;56967;43.538;-5.646;2022-10-31T16:35:34;15.10;;;2.28;;
69703;SDS011;56967;43.538;-5.646;2022-10-31T16:38:01;23.08;;;2.30;;
69703;SDS011;56967;43.538;-5.646;2022-10-31T16:40:28;11.07;;;1.70;;
69703;SDS011;56967;43.538;-5.646;2022-10-31T16:42:56;14.00;;;2.75;;
69703;SDS011;56967;43.538;-5.646;2022-10-31T16:45:24;14.65;;;1.80;;
69703;SDS011;56967;43.538;-5.646;2022-10-31T16:47:51;9.02;;;2.00;;
69703;SDS011;56967;43.538;-5.646;2022-10-31T16:52:44;14.57;;;2.20;;
69703;SDS011;56967;43.538;-5.646;2022-10-31T16:55:12;13.60;;;1.95;;
69703;SDS011;56967;43.538;-5.646;2022-10-31T16:58:00;17.27;;;2.20;;
69703;SDS011;56967;43.538;-5.646;2022-10-31T17:00:26;25.10;;;5.43;;
69703;SDS011;56967;43.538;-5.646;2022-10-31T17:02:56;20.10;;;4.70;;
69703;SDS011;56967;43.538;-5.646;2022-10-31T17:05:22;11.85;;;2.47;;
69703;SDS011;56967;43.538;-5.646;2022-10-31T17:07:54;15.18;;;2.83;;
69703;SDS011;56967;43.538;-5.646;2022-10-31T17:10:23;13.23;;;2.47;;
69703;SDS011;56967;43.538;-5.646;2022-10-31T17:12:49;12.60;;;2.00;;
69703;SDS011;56967;43.538;-5.646;2022-10-31T17:15:17;12.20;;;2.50;;
69703;SDS011;56967;43.538;-5.646;2022-10-31T17:17:50;14.07;;;2.00;;
69703;SDS011;56967;43.538;-5.646;2022-10-31T17:20:24;18.50;;;2.63;;
69703;SDS011;56967;43.538;-5.646;2022-10-31T17:22:52;13.13;;;2.55;;